Atkins, Iowa
Current Conditions -  °F | °C
As of 9:52 AM on Monday 26 Jan 2015 (Local Time) from KCID Reporting Station
Haze Haze  
Wind Chill: 16°   Ceiling: 2300
Heat Index: 26°   Visibility: 4mi
Dew Point: 24°   Wind: 10mph
Humidity: 92%   Direction: 160°SSE
Pressure: 29.84"   Gusts: NA
Location:  42°N, 91.86°W
Report Text: KCID 261552Z 16009KT 4SM BR SCT014 OVC023 M03/M04 A2984 RMK AO2 UPB23E33SNE01 SLP117 P0000 T10331044
Loading
Personal Weather Stations






























Interactive Weather Map New forecast layout! Learn more

10-Day Weather Forecast

Advertisements
Track Severe Weather on mobile